Time;durP1;ratioP1;P1;durP2;ratioP2;P2;SDS_P1;SDS_P2;PMS_P1;PMS_P2;Temp;Humidity;BMP_temperature;BMP_pressure;BME280_temperature;BME280_humidity;BME280_pressure;Samples;Min_cycle;Max_cycle;Signal;HPM_P1;HPM_P2
2022/01/15 00:02:10;;;;;;;;;;;;;;;2.34;100.00;102091.00;4959744;28;1341;-92
2022/01/15 00:04:35;;;;;;;;;;;;;;;2.33;99.96;102082.06;4960188;28;1238;-91
2022/01/15 00:07:00;;;;;;;;;;;;;;;2.32;100.00;102091.19;4960142;28;1220;-91
2022/01/15 00:09:25;;;;;;;;;;;;;;;2.36;100.00;102087.09;4960363;28;1242;-91
2022/01/15 00:11:52;;;;;;;;;;;;;;;2.37;100.00;102083.38;4960029;28;1305;-91
2022/01/15 00:14:32;;;;;;;;;;;;;;;2.37;100.00;102087.94;4972351;28;1365;-91
2022/01/15 00:17:06;;;;;;;;;;;;;;;2.37;100.00;102098.75;4959493;28;1953;-91
2022/01/15 00:19:41;;;;;;;;;;;;;;;2.37;100.00;102094.19;4959707;28;1329;-91
2022/01/15 00:22:07;;;;;;;;;;;;;;;2.37;100.00;102087.94;4959634;28;1317;-91
2022/01/15 00:24:32;;;;;;;;;;;;;;;2.37;99.91;102086.06;4959372;28;1352;-91
2022/01/15 00:26:57;;;;;;;;;;;;;;;2.36;100.00;102094.38;4959544;28;1256;-91
2022/01/15 00:29:25;;;;;;;;;;;;;;;2.37;99.97;102086.06;4959388;28;1356;-91
2022/01/15 00:31:50;;;;;;;;;;;;;;;2.38;100.00;102092.31;4959515;28;1389;-91
2022/01/15 00:34:15;;;;;;;;;;;;;;;2.38;100.00;102081.50;4961080;28;1202;-92
2022/01/15 00:36:40;;;;;;;;;;;;;;;2.37;100.00;102082.53;4960146;28;1891;-90
2022/01/15 00:39:05;;;;;;;;;;;;;;;2.38;99.93;102084.22;4959910;28;1754;-91
2022/01/15 00:41:30;;;;;;;;;;;;;;;2.37;100.00;102083.38;4960152;28;1221;-91
2022/01/15 00:43:56;;;;;;;;;;;;;;;2.38;100.00;102084.22;4959524;28;1100;-91
2022/01/15 00:46:21;;;;;;;;;;;;;;;2.39;100.00;102078.59;4959979;28;1237;-91
2022/01/15 00:48:46;;;;;;;;;;;;;;;2.41;100.00;102073.00;4959676;28;1283;-91
2022/01/15 00:51:11;;;;;;;;;;;;;;;2.41;100.00;102081.09;4958964;28;1340;-91
2022/01/15 00:53:36;;;;;;;;;;;;;;;2.39;99.97;102075.88;4958986;28;1199;-91
2022/01/15 00:56:02;;;;;;;;;;;;;;;2.39;100.00;102075.06;4958810;28;1902;-92
2022/01/15 00:58:27;;;;;;;;;;;;;;;2.39;100.00;102067.78;4958068;28;1338;-91
2022/01/15 01:00:52;;;;;;;;;;;;;;;2.39;100.00;102066.94;4959071;28;1403;-91
2022/01/15 01:03:17;;;;;;;;;;;;;;;2.37;100.00;102063.63;4958748;28;1280;-92
2022/01/15 01:05:42;;;;;;;;;;;;;;;2.37;99.92;102069.03;4958584;28;1194;-91
2022/01/15 01:08:07;;;;;;;;;;;;;;;2.39;100.00;102073.19;4958724;28;1358;-91
2022/01/15 01:10:51;;;;;;;;;;;;;;;2.37;100.00;102066.31;4958392;28;1392;-91
2022/01/15 01:21:42;;;;;;;;;;;;;;;2.35;100.00;102055.69;4976749;28;740;-91
2022/01/15 01:23:55;;;;;;;;;;;;;;;2.36;100.00;102065.47;4975605;28;1033;-91
2022/01/15 01:26:39;;;;;;;;;;;;;;;2.39;100.00;102053.44;4958515;28;1349;-91
2022/01/15 01:29:16;;;;;;;;;;;;;;;2.40;100.00;102050.53;4959215;28;1255;-91
2022/01/15 01:31:55;;;;;;;;;;;;;;;2.41;100.00;102051.38;4959266;28;1271;-91
2022/01/15 01:34:21;;;;;;;;;;;;;;;2.41;100.00;102060.34;4958371;28;1352;-91
2022/01/15 01:39:17;;;;;;;;;;;;;;;2.42;100.00;102050.38;4975432;28;1761;-92
2022/01/15 01:41:52;;;;;;;;;;;;;;;2.43;100.00;102036.66;4958041;28;1225;-91
2022/01/15 01:44:21;;;;;;;;;;;;;;;2.41;100.00;102036.00;4958057;28;1633;-91
2022/01/15 01:46:57;;;;;;;;;;;;;;;2.42;100.00;102042.25;4958745;28;1340;-91
2022/01/15 01:49:22;;;;;;;;;;;;;;;2.42;100.00;102032.28;4958169;28;1277;-91
2022/01/15 01:51:48;;;;;;;;;;;;;;;2.43;100.00;102033.97;4958182;28;1280;-91
2022/01/15 01:54:16;;;;;;;;;;;;;;;2.43;100.00;102030.44;4957912;28;978;-91
2022/01/15 01:56:42;;;;;;;;;;;;;;;2.41;100.00;102033.31;4957955;28;1891;-91
2022/01/15 01:59:07;;;;;;;;;;;;;;;2.43;100.00;102027.72;4958054;28;1312;-91
2022/01/15 02:01:33;;;;;;;;;;;;;;;2.44;100.00;102016.72;4957924;28;1230;-91
2022/01/15 02:03:58;;;;;;;;;;;;;;;2.43;100.00;102016.91;4958836;28;1308;-91
2022/01/15 02:06:23;;;;;;;;;;;;;;;2.42;100.00;102013.38;4958726;28;1213;-91
2022/01/15 02:08:49;;;;;;;;;;;;;;;2.42;100.00;102010.66;4959001;28;1294;-91
2022/01/15 02:11:15;;;;;;;;;;;;;;;2.45;100.00;102013.00;4962624;28;1182;-91
2022/01/15 02:13:41;;;;;;;;;;;;;;;2.44;100.00;102019.44;4962415;28;1254;-91
2022/01/15 02:16:06;;;;;;;;;;;;;;;2.43;100.00;102012.34;4961812;28;1898;-91
2022/01/15 02:18:34;;;;;;;;;;;;;;;2.42;100.00;102010.66;4961659;28;1288;-92
2022/01/15 02:23:33;;;;;;;;;;;;;;;2.41;100.00;102013.56;4979414;28;1006;-91
2022/01/15 02:26:00;;;;;;;;;;;;;;;2.39;100.00;102000.22;4961499;28;1233;-91
2022/01/15 02:28:27;;;;;;;;;;;;;;;2.42;100.00;102004.44;4961711;28;1562;-92
2022/01/15 02:30:53;;;;;;;;;;;;;;;2.40;100.00;102001.91;4961940;28;1333;-91
2022/01/15 02:33:18;;;;;;;;;;;;;;;2.44;100.00;102002.38;4961705;28;1326;-91
2022/01/15 02:35:43;;;;;;;;;;;;;;;2.41;100.00;102006.28;4961368;28;1182;-91
2022/01/15 02:38:09;;;;;;;;;;;;;;;2.41;100.00;102003.59;4961154;28;1906;-91
2022/01/15 02:40:35;;;;;;;;;;;;;;;2.41;100.00;101998.19;4961254;28;1364;-92
2022/01/15 02:43:03;;;;;;;;;;;;;;;2.44;100.00;102000.50;4961473;28;1229;-92
2022/01/15 02:45:29;;;;;;;;;;;;;;;2.44;100.00;101997.81;4961104;28;1337;-91
2022/01/15 02:48:00;;;;;;;;;;;;;;;2.42;100.00;101997.16;4964453;28;1341;-92
2022/01/15 02:50:26;;;;;;;;;;;;;;;2.43;100.00;101992.59;4968484;28;1394;-91
2022/01/15 02:52:51;;;;;;;;;;;;;;;2.44;100.00;101995.09;4966941;28;1391;-92
2022/01/15 02:55:16;;;;;;;;;;;;;;;2.42;100.00;101993.63;4962013;28;985;-91
2022/01/15 02:57:41;;;;;;;;;;;;;;;2.43;100.00;101990.72;4961601;28;1902;-91
2022/01/15 03:00:07;;;;;;;;;;;;;;;2.43;100.00;101984.50;4961117;28;1264;-91
2022/01/15 03:02:33;;;;;;;;;;;;;;;2.42;100.00;101964.72;4961575;28;1211;-91
2022/01/15 03:04:58;;;;;;;;;;;;;;;2.41;100.00;101960.34;4962858;28;1246;-91
2022/01/15 03:07:23;;;;;;;;;;;;;;;2.42;100.00;101962.03;4962947;28;1230;-90
2022/01/15 03:09:48;;;;;;;;;;;;;;;2.45;100.00;101968.94;4962421;28;1275;-92
2022/01/15 03:12:13;;;;;;;;;;;;;;;2.43;100.00;101958.31;4960754;28;983;-91
2022/01/15 03:14:39;;;;;;;;;;;;;;;2.45;100.00;101963.53;4960447;28;1290;-91
2022/01/15 03:17:04;;;;;;;;;;;;;;;2.47;100.00;101961.44;4960915;28;1948;-91
2022/01/15 03:19:29;;;;;;;;;;;;;;;2.46;100.00;101957.09;4960830;28;1182;-91
2022/01/15 03:21:57;;;;;;;;;;;;;;;2.44;100.00;101957.28;4959949;28;1379;-91
2022/01/15 03:24:22;;;;;;;;;;;;;;;2.44;100.00;101949.16;4948609;29;1195;-91
2022/01/15 03:26:48;;;;;;;;;;;;;;;2.45;100.00;101952.72;4942212;29;1192;-91
2022/01/15 03:29:13;;;;;;;;;;;;;;;2.49;100.00;101957.53;4941673;29;1202;-91
2022/01/15 03:31:38;;;;;;;;;;;;;;;2.51;100.00;101950.06;4941656;29;1222;-91
2022/01/15 03:34:04;;;;;;;;;;;;;;;2.48;100.00;101947.75;4941644;29;1321;-91
2022/01/15 03:36:29;;;;;;;;;;;;;;;2.46;100.00;101936.31;4925514;29;1894;-91
2022/01/15 03:41:22;;;;;;;;;;;;;;;2.51;100.00;101931.16;5000468;23;1752;-88
2022/01/15 03:43:48;;;;;;;;;;;;;;;2.49;100.00;101938.59;4983191;28;1471;-88
2022/01/15 03:46:34;;;;;;;;;;;;;;;2.48;100.00;101944.19;4964881;28;1318;-87
2022/01/15 03:48:59;;;;;;;;;;;;;;;2.49;100.00;101935.91;4962591;28;1309;-88
2022/01/15 03:51:27;;;;;;;;;;;;;;;2.51;100.00;101936.56;4978846;28;1336;-88
2022/01/15 03:53:52;;;;;;;;;;;;;;;2.51;100.00;101933.84;4968110;28;1776;-88
2022/01/15 03:56:17;;;;;;;;;;;;;;;2.51;100.00;101936.56;4971060;28;1919;-88
2022/01/15 03:58:42;;;;;;;;;;;;;;;2.48;100.00;101934.22;4979010;28;1214;-87
2022/01/15 04:01:08;;;;;;;;;;;;;;;2.49;100.00;101935.91;4970892;28;1661;-88
2022/01/15 04:03:33;;;;;;;;;;;;;;;2.48;100.00;101934.22;4961564;29;835;-88
2022/01/15 04:09:04;;;;;;;;;;;;;;;;;;;;;
2022/01/15 04:11:49;;;;;;;;;;;;;;;2.50;100.00;101920.53;4972643;28;1689;-88
2022/01/15 04:14:25;;;;;;;;;;;;;;;2.51;100.00;101917.63;4961769;28;1514;-87
2022/01/15 04:16:50;;;;;;;;;;;;;;;2.53;100.00;101912.88;4961236;29;1883;-88
2022/01/15 04:19:15;;;;;;;;;;;;;;;2.52;100.00;101903.09;4961097;29;1297;-88
2022/01/15 04:21:40;;;;;;;;;;;;;;;2.51;100.00;101917.63;4961411;29;1213;-88
2022/01/15 04:24:06;;;;;;;;;;;;;;;2.53;100.00;101909.34;4979007;28;1462;-88
2022/01/15 04:26:31;;;;;;;;;;;;;;;2.50;100.00;101921.38;4982557;28;1316;-89
2022/01/15 04:29:04;;;;;;;;;;;;;;;2.50;100.00;101917.81;4984663;28;832;-88
2022/01/15 04:31:36;;;;;;;;;;;;;;;2.49;100.00;101918.84;4970593;28;1720;-88
2022/01/15 04:34:01;;;;;;;;;;;;;;;2.49;100.00;101925.09;4981318;28;1693;-86
2022/01/15 04:36:26;;;;;;;;;;;;;;;2.50;100.00;101921.38;4987905;28;1886;-86
2022/01/15 04:38:51;;;;;;;;;;;;;;;2.51;100.00;101922.22;4978532;29;1307;-87
2022/01/15 04:41:16;;;;;;;;;;;;;;;2.49;100.00;101917.00;4967363;29;1257;-87
2022/01/15 04:43:41;;;;;;;;;;;;;;;2.50;100.00;101923.22;4957182;29;788;-87
2022/01/15 04:46:06;;;;;;;;;;;;;;;2.50;100.00;101913.25;4955787;29;1282;-87
2022/01/15 04:48:33;;;;;;;;;;;;;;;2.49;100.00;101910.75;4955611;29;921;-87
2022/01/15 04:50:58;;;;;;;;;;;;;;;2.48;100.00;101909.06;4955720;29;1390;-86
2022/01/15 04:53:23;;;;;;;;;;;;;;;2.47;100.00;101916.34;4957048;29;1046;-87
2022/01/15 04:55:48;;;;;;;;;;;;;;;2.49;100.00;101913.44;4956083;29;1097;-87
2022/01/15 04:58:13;;;;;;;;;;;;;;;2.50;100.00;101915.97;4955870;29;1886;-87
2022/01/15 05:00:39;;;;;;;;;;;;;;;2.52;100.00;101915.78;4955629;29;1371;-87
2022/01/15 05:03:04;;;;;;;;;;;;;;;2.49;100.00;101921.56;4955226;29;1167;-87
2022/01/15 05:05:29;;;;;;;;;;;;;;;2.47;100.00;101921.75;4955291;29;1162;-87
2022/01/15 05:07:55;;;;;;;;;;;;;;;2.51;100.00;101919.50;4955644;29;1380;-87
2022/01/15 05:10:24;;;;;;;;;;;;;;;2.52;100.00;101921.19;4955723;29;1297;-87
2022/01/15 05:12:50;;;;;;;;;;;;;;;2.48;100.00;101925.28;4955233;29;1298;-87
2022/01/15 05:15:16;;;;;;;;;;;;;;;2.45;100.00;101921.13;4957271;29;876;-87
2022/01/15 05:17:41;;;;;;;;;;;;;;;2.50;100.00;101925.94;4957093;29;1954;-86
2022/01/15 05:20:08;;;;;;;;;;;;;;;2.52;100.00;101924.72;4971940;28;1309;-86
2022/01/15 05:22:34;;;;;;;;;;;;;;;2.52;100.00;101924.72;4957344;28;1453;-87
2022/01/15 05:24:59;;;;;;;;;;;;;;;2.49;100.00;101908.88;4975361;28;1253;-87
2022/01/15 05:27:24;;;;;;;;;;;;;;;2.47;100.00;101908.22;4975165;28;1295;-88
2022/01/15 05:29:49;;;;;;;;;;;;;;;2.48;100.00;101919.88;4975064;28;1296;-86
2022/01/15 05:32:15;;;;;;;;;;;;;;;2.48;100.00;101918.00;4962603;28;1689;-87
2022/01/15 05:34:40;;;;;;;;;;;;;;;2.45;100.00;101907.59;4974064;28;1522;-86
2022/01/15 05:37:05;;;;;;;;;;;;;;;2.43;100.00;101914.22;4974870;28;1898;-87
2022/01/15 05:39:30;;;;;;;;;;;;;;;2.42;100.00;101920.66;4975919;28;1193;-87
2022/01/15 05:41:56;;;;;;;;;;;;;;;2.43;100.00;101912.38;4973896;28;1218;-88
2022/01/15 05:44:21;;;;;;;;;;;;;;;2.44;100.00;101914.03;4972344;28;1465;-87
2022/01/15 05:46:46;;;;;;;;;;;;;;;2.44;100.00;101913.19;4974233;28;1074;-88
2022/01/15 05:49:13;;;;;;;;;;;;;;;2.44;100.00;101916.75;4973906;28;1364;-88
2022/01/15 05:51:38;;;;;;;;;;;;;;;2.44;100.00;101905.09;4973525;28;1238;-88
2022/01/15 05:54:03;;;;;;;;;;;;;;;2.46;100.00;101909.28;4957843;28;1510;-86
2022/01/15 05:56:29;;;;;;;;;;;;;;;2.44;100.00;101900.53;4964665;28;1961;-87
2022/01/15 05:58:54;;;;;;;;;;;;;;;2.45;100.00;101904.91;4973776;28;1409;-87
2022/01/15 06:01:19;;;;;;;;;;;;;;;2.45;100.00;101890.56;4973831;28;1375;-88
2022/01/15 06:03:45;;;;;;;;;;;;;;;2.45;100.00;101899.50;4960976;28;1416;-86
2022/01/15 06:06:10;;;;;;;;;;;;;;;2.45;100.00;101904.06;4954252;29;1262;-88
2022/01/15 06:08:35;;;;;;;;;;;;;;;2.43;100.00;101898.84;4954818;29;1190;-87
2022/01/15 06:11:00;;;;;;;;;;;;;;;2.47;100.00;101900.13;4955713;29;1222;-88
2022/01/15 06:13:25;;;;;;;;;;;;;;;2.48;100.00;101900.97;4954398;28;1534;-88
2022/01/15 06:15:51;;;;;;;;;;;;;;;2.49;100.00;101908.03;4955074;29;1728;-89
2022/01/15 06:18:16;;;;;;;;;;;;;;;2.50;100.00;101913.25;4954991;29;1945;-89
2022/01/15 06:20:41;;;;;;;;;;;;;;;2.51;100.00;101903.28;4954637;29;1349;-88
2022/01/15 06:23:06;;;;;;;;;;;;;;;2.51;100.00;101906.00;4954940;29;1274;-89
2022/01/15 06:25:31;;;;;;;;;;;;;;;2.48;100.00;101904.50;4954658;29;1183;-88
2022/01/15 06:27:57;;;;;;;;;;;;;;;2.49;100.00;101905.34;4973501;28;1782;-88
2022/01/15 06:30:22;;;;;;;;;;;;;;;2.49;100.00;101903.47;4973535;28;1344;-89
2022/01/15 06:32:47;;;;;;;;;;;;;;;2.48;100.00;101895.56;4973493;28;1206;-87
2022/01/15 06:35:13;;;;;;;;;;;;;;;2.47;100.00;101899.28;4973784;28;1313;-89
2022/01/15 06:37:38;;;;;;;;;;;;;;;2.46;100.00;101897.63;4973545;28;1894;-88
2022/01/15 06:40:04;;;;;;;;;;;;;;;2.49;100.00;101898.06;4938228;28;1044284;-88
2022/01/15 06:42:29;;;;;;;;;;;;;;;2.48;100.00;101899.09;4965954;28;1377;-89
2022/01/15 06:44:55;;;;;;;;;;;;;;;2.50;100.00;101891.63;4962869;28;1791;-89
2022/01/15 06:47:20;;;;;;;;;;;;;;;2.50;100.00;101894.34;4955051;29;1306;-88
2022/01/15 06:49:45;;;;;;;;;;;;;;;2.50;100.00;101891.63;4954702;29;1293;-88
2022/01/15 06:52:11;;;;;;;;;;;;;;;2.49;100.00;101889.13;4954636;29;1157;-88
2022/01/15 06:54:36;;;;;;;;;;;;;;;2.49;100.00;101889.13;4954422;28;1420;-88
2022/01/15 06:57:01;;;;;;;;;;;;;;;2.51;100.00;101890.63;4958457;29;1907;-88
2022/01/15 06:59:26;;;;;;;;;;;;;;;2.52;100.00;101884.19;4958691;29;1320;-88
2022/01/15 07:01:51;;;;;;;;;;;;;;;2.53;100.00;101893.13;4962030;28;1434;-88
2022/01/15 07:04:17;;;;;;;;;;;;;;;2.54;100.00;101895.66;4978501;28;1184;-88
2022/01/15 07:06:42;;;;;;;;;;;;;;;2.51;100.00;101893.31;4978362;28;1211;-87
2022/01/15 07:09:07;;;;;;;;;;;;;;;2.47;100.00;101891.19;4977680;28;1219;-89
2022/01/15 07:11:32;;;;;;;;;;;;;;;2.46;100.00;101882.25;4965073;28;1514;-89
2022/01/15 07:13:58;;;;;;;;;;;;;;;2.50;100.00;101880.00;4957783;29;1721;-88
2022/01/15 07:16:23;;;;;;;;;;;;;;;2.52;100.00;101889.59;4958056;29;1894;-88
2022/01/15 07:18:48;;;;;;;;;;;;;;;2.53;100.00;101891.25;4958183;29;1475;-88
2022/01/15 07:21:13;;;;;;;;;;;;;;;2.53;100.00;101888.56;4967606;28;1534;-88
2022/01/15 07:23:39;;;;;;;;;;;;;;;2.53;100.00;101871.50;4966729;28;1720;-89
2022/01/15 07:26:04;;;;;;;;;;;;;;;2.51;100.00;101871.69;4977695;28;1377;-87
2022/01/15 07:28:30;;;;;;;;;;;;;;;2.54;100.00;101875.88;4978819;28;1009;-88
2022/01/15 07:30:56;;;;;;;;;;;;;;;2.51;100.00;101874.41;4968411;28;1681;-89
2022/01/15 07:33:21;;;;;;;;;;;;;;;2.49;100.00;101873.75;4966281;28;1549;-88
2022/01/15 07:35:47;;;;;;;;;;;;;;;2.51;100.00;101879.81;4969722;28;1661;-88
2022/01/15 07:38:13;;;;;;;;;;;;;;;2.52;100.00;101880.63;5011844;28;1969;-87
2022/01/15 07:40:38;;;;;;;;;;;;;;;2.53;100.00;101882.31;4984418;28;1685;-88
2022/01/15 07:43:03;;;;;;;;;;;;;;;2.57;100.00;101880.88;4972774;28;1626;-88
2022/01/15 07:45:28;;;;;;;;;;;;;;;2.58;100.00;101880.69;4959472;28;1495;-87
2022/01/15 07:47:53;;;;;;;;;;;;;;;2.60;100.00;101875.94;4976185;28;1924;-88
2022/01/15 07:50:23;;;;;;;;;;;;;;;2.58;100.00;101879.84;4965017;28;1756;-86
2022/01/15 07:52:49;;;;;;;;;;;;;;;2.57;100.00;101878.19;4975393;28;1548;-88
2022/01/15 07:55:15;;;;;;;;;;;;;;;2.56;100.00;101881.91;4957654;29;1195;-87
2022/01/15 07:57:43;;;;;;;;;;;;;;;2.55;100.00;101888.38;4970515;28;1895;-88
2022/01/15 08:00:09;;;;;;;;;;;;;;;2.54;100.00;101887.53;4975803;28;1808;-87
2022/01/15 08:02:34;;;;;;;;;;;;;;;2.58;100.00;101875.28;4967449;28;1772;-87
2022/01/15 08:04:59;;;;;;;;;;;;;;;2.60;100.00;101881.34;4974731;28;1658;-88
2022/01/15 08:07:24;;;;;;;;;;;;;;;2.60;100.00;101873.22;4977645;28;1053;-87
2022/01/15 08:09:49;;;;;;;;;;;;;;;2.62;100.00;101876.59;4976675;28;1198;-89
2022/01/15 08:12:15;;;;;;;;;;;;;;;2.65;100.00;101880.75;4977703;28;729;-88
2022/01/15 08:14:41;;;;;;;;;;;;;;;2.66;100.00;101882.41;4979324;28;1221;-87
2022/01/15 08:17:06;;;;;;;;;;;;;;;2.66;100.00;101882.41;4959541;28;1891;-87
2022/01/15 08:19:31;;;;;;;;;;;;;;;2.65;100.00;101880.75;4970710;28;1570;-88
2022/01/15 08:21:57;;;;;;;;;;;;;;;2.65;100.00;101878.03;4969808;28;1641;-88
2022/01/15 08:24:23;;;;;;;;;;;;;;;2.63;100.00;101878.25;4960339;28;1681;-89
2022/01/15 08:26:48;;;;;;;;;;;;;;;2.64;100.00;101884.47;4967956;28;1633;-88
2022/01/15 08:29:13;;;;;;;;;;;;;;;2.68;100.00;101893.88;4970046;28;1766;-89
2022/01/15 08:31:38;;;;;;;;;;;;;;;2.70;100.00;101877.47;4957937;28;1997;-83
2022/01/15 08:34:04;;;;;;;;;;;;;;;2.77;100.00;101878.38;4957709;29;742;-89
2022/01/15 08:36:29;;;;;;;;;;;;;;;2.78;100.00;101875.47;4957740;29;1966;-88
2022/01/15 08:38:54;;;;;;;;;;;;;;;2.78;100.00;101869.22;4958349;29;1330;-88
2022/01/15 08:41:19;;;;;;;;;;;;;;;2.79;100.00;101870.91;4960856;28;1609;-89
2022/01/15 08:43:45;;;;;;;;;;;;;;;2.79;100.00;101887.13;4978490;28;1085;-89
2022/01/15 08:46:14;;;;;;;;;;;;;;;2.81;100.00;101880.47;4969853;28;1259;-90
2022/01/15 08:48:39;;;;;;;;;;;;;;;2.83;100.00;101882.97;4958905;29;1253;-88
2022/01/15 08:51:04;;;;;;;;;;;;;;;2.83;100.00;101888.38;4959905;29;1872;-88
2022/01/15 08:53:29;;;;;;;;;;;;;;;2.86;100.00;101888.00;4976020;28;1388;-89
2022/01/15 08:55:55;;;;;;;;;;;;;;;2.87;100.00;101886.97;4974232;28;1902;-89
2022/01/15 08:58:20;;;;;;;;;;;;;;;2.87;100.00;101897.78;4962221;28;1954;-88
2022/01/15 09:00:46;;;;;;;;;;;;;;;2.87;100.00;101895.09;4977542;28;1876;-88
2022/01/15 09:03:11;;;;;;;;;;;;;;;2.90;100.00;101881.16;4983055;28;808;-88
2022/01/15 09:05:36;;;;;;;;;;;;;;;2.88;100.00;101880.53;4982928;28;1062;-88
2022/01/15 09:08:03;;;;;;;;;;;;;;;2.91;100.00;101880.13;4982285;28;1886;-89
2022/01/15 09:10:28;;;;;;;;;;;;;;;2.89;100.00;101879.50;4971271;28;1533;-87
2022/01/15 09:12:53;;;;;;;;;;;;;;;2.89;100.00;101893.03;4967744;28;1563;-89
2022/01/15 09:15:18;;;;;;;;;;;;;;;2.91;100.00;101890.94;4970504;28;1376;-89
2022/01/15 09:17:43;;;;;;;;;;;;;;;2.94;100.00;101887.84;4962843;28;1928;-89
2022/01/15 09:20:09;;;;;;;;;;;;;;;2.94;100.00;101887.84;4966013;28;1578;-88
2022/01/15 09:22:35;;;;;;;;;;;;;;;2.93;100.00;101884.31;4967713;28;1408;-89
2022/01/15 09:25:00;;;;;;;;;;;;;;;2.96;100.00;101880.41;4983594;28;1297;-89
2022/01/15 09:30:12;;;;;;;;;;;;;;;2.98;100.00;101884.56;4980024;28;1316;-89
2022/01/15 09:32:42;;;;;;;;;;;;;;;3.00;100.00;101885.19;4975892;28;1354;-89
2022/01/15 09:35:07;;;;;;;;;;;;;;;3.01;100.00;101875.22;4983226;28;1246;-88
2022/01/15 09:37:32;;;;;;;;;;;;;;;3.02;100.00;101882.31;4973428;28;1898;-88
2022/01/15 09:39:58;;;;;;;;;;;;;;;3.05;100.00;101879.22;4991675;28;1483;-88
2022/01/15 09:44:54;;;;;;;;;;;;;;;3.07;100.00;101876.28;4973681;28;1385;-91
2022/01/15 09:47:21;;;;;;;;;;;;;;;3.08;100.00;101870.69;4957953;28;1248;-91
2022/01/15 09:49:47;;;;;;;;;;;;;;;3.08;100.00;101867.97;4958133;28;1270;-90
2022/01/15 09:52:12;;;;;;;;;;;;;;;3.15;100.00;101858.03;4966724;28;1490;-91
2022/01/15 09:54:40;;;;;;;;;;;;;;;3.18;100.00;101859.50;4947977;28;1334;-91
2022/01/15 09:57:05;;;;;;;;;;;;;;;3.18;100.00;101859.50;4973995;28;1902;-92
2022/01/15 09:59:30;;;;;;;;;;;;;;;3.17;100.00;101864.09;4957853;28;1341;-88
2022/01/15 10:01:57;;;;;;;;;;;;;;;3.20;100.00;101855.59;4957110;29;1206;-88
2022/01/15 10:04:23;;;;;;;;;;;;;;;3.21;100.00;101861.84;4940827;28;1305;-89
2022/01/15 10:07:07;;;;;;;;;;;;;;;3.20;99.91;101852.88;4973542;28;1339;-91
2022/01/15 10:09:32;;;;;;;;;;;;;;;3.22;100.00;101855.38;4973963;28;1411;-93
2022/01/15 10:11:57;;;;;;;;;;;;;;;3.25;100.00;101853.09;4960646;28;1406;-88
2022/01/15 10:14:27;;;;;;;;;;;;;;;3.24;100.00;101859.53;4940815;29;1337;-88
2022/01/15 10:16:55;;;;;;;;;;;;;;;3.21;100.00;101859.97;4961639;28;1883;-86
2022/01/15 10:19:27;;;;;;;;;;;;;;;3.22;99.88;101844.56;4986038;28;1833;-90
2022/01/15 10:22:11;;;;;;;;;;;;;;;3.22;100.00;101850.81;4963988;28;1831;-89
2022/01/15 10:24:37;;;;;;;;;;;;;;;3.24;99.95;101840.59;4960503;28;1348;-91
2022/01/15 10:27:19;;;;;;;;;;;;;;;3.28;100.00;101843.75;4965869;28;1388;-88
2022/01/15 10:29:49;;;;;;;;;;;;;;;3.28;100.00;101841.91;4973475;28;1377;-92
2022/01/15 10:32:15;;;;;;;;;;;;;;;3.30;99.83;101847.94;4963434;28;1349;-92
2022/01/15 10:34:42;;;;;;;;;;;;;;;3.30;99.88;101841.69;4950153;29;1330;-92
2022/01/15 10:37:34;;;;;;;;;;;;;;;3.34;100.00;101841.09;4973743;28;1962;-89
2022/01/15 10:40:03;;;;;;;;;;;;;;;3.33;100.00;101836.72;4959310;28;1256;-89
2022/01/15 10:42:28;;;;;;;;;;;;;;;3.39;99.80;101826.97;4958500;28;1335;-87
2022/01/15 10:44:54;;;;;;;;;;;;;;;3.35;99.68;101826.53;4964590;28;1202;-88
2022/01/15 10:47:21;;;;;;;;;;;;;;;3.36;99.71;101833.59;4980994;28;1178;-88
2022/01/15 10:49:46;;;;;;;;;;;;;;;3.37;99.89;101835.28;4980323;28;1351;-90
2022/01/15 10:52:12;;;;;;;;;;;;;;;3.43;99.82;101826.34;4981487;28;1209;-92
2022/01/15 10:54:57;;;;;;;;;;;;;;;3.46;99.84;101816.16;4980486;28;1318;-91
2022/01/15 10:57:23;;;;;;;;;;;;;;;3.49;99.81;101819.28;5003692;28;1894;-87
2022/01/15 11:00:00;;;;;;;;;;;;;;;3.50;99.38;101820.13;4980226;28;1948;-88
2022/01/15 11:02:25;;;;;;;;;;;;;;;3.48;99.32;101814.09;4995556;28;1339;-88
2022/01/15 11:04:50;;;;;;;;;;;;;;;3.48;99.59;101808.69;4981833;28;1237;-88
2022/01/15 11:07:16;;;;;;;;;;;;;;;3.46;99.57;101803.47;4981262;28;1060;-89
2022/01/15 11:09:46;;;;;;;;;;;;;;;3.49;99.73;101804.94;4982650;28;1705;-87
2022/01/15 11:12:12;;;;;;;;;;;;;;;3.50;99.67;101798.47;4981793;28;1186;-91
2022/01/15 11:14:37;;;;;;;;;;;;;;;3.51;99.59;101802.84;4982582;28;1193;-91
2022/01/15 11:17:02;;;;;;;;;;;;;;;3.49;99.44;101794.13;4981479;28;1953;-91
2022/01/15 11:19:39;;;;;;;;;;;;;;;3.52;99.64;101796.41;4983808;28;1276;-90
2022/01/15 11:22:04;;;;;;;;;;;;;;;3.53;99.46;101798.06;4979897;28;1280;-91
2022/01/15 11:24:29;;;;;;;;;;;;;;;3.55;99.80;101809.53;4979903;28;1169;-92
2022/01/15 11:26:57;;;;;;;;;;;;;;;3.51;99.56;101802.84;4971272;28;1718;-88
2022/01/15 11:29:25;;;;;;;;;;;;;;;3.52;99.62;101801.81;4965934;28;1798;-89
2022/01/15 11:31:56;;;;;;;;;;;;;;;3.51;99.84;101790.16;4952225;28;1710;-90
2022/01/15 11:34:21;;;;;;;;;;;;;;;3.52;99.55;101791.81;4984434;28;1743;-91
2022/01/15 11:36:47;;;;;;;;;;;;;;;3.51;99.57;101787.44;4959588;28;1898;-90
2022/01/15 11:39:14;;;;;;;;;;;;;;;3.52;99.57;101785.56;4982794;28;1587;-93
2022/01/15 11:41:40;;;;;;;;;;;;;;;3.57;99.63;101780.41;4968226;28;1805;-92
2022/01/15 11:44:06;;;;;;;;;;;;;;;3.60;99.65;101777.28;4976102;28;1849;-91
2022/01/15 11:46:32;;;;;;;;;;;;;;;3.58;99.60;101784.75;4964555;28;1702;-91
2022/01/15 11:49:16;;;;;;;;;;;;;;;3.60;99.59;101779.97;4960339;28;1657;-91
2022/01/15 11:51:41;;;;;;;;;;;;;;;3.63;99.63;101768.75;4959521;28;1271;-91
2022/01/15 11:54:10;;;;;;;;;;;;;;;3.61;99.22;101771.66;4979271;28;1312;-91
2022/01/15 11:56:37;;;;;;;;;;;;;;;3.62;99.42;101765.22;4962706;28;1902;-93
2022/01/15 11:59:21;;;;;;;;;;;;;;;3.65;99.35;101758.56;4959585;28;1846;-89
2022/01/15 12:01:48;;;;;;;;;;;;;;;3.68;99.52;101758.13;4977007;28;1758;-92
2022/01/15 12:04:26;;;;;;;;;;;;;;;3.69;99.22;101751.69;4959589;28;1442;-89
2022/01/15 12:07:07;;;;;;;;;;;;;;;3.68;99.34;101745.44;4970780;28;1755;-91
2022/01/15 12:09:39;;;;;;;;;;;;;;;3.69;99.25;101748.97;4974144;28;1739;-88
2022/01/15 12:12:17;;;;;;;;;;;;;;;3.70;99.31;101745.22;4978763;28;1602;-91
2022/01/15 12:14:53;;;;;;;;;;;;;;;3.70;99.32;101746.06;4959272;28;1722;-90
2022/01/15 12:17:38;;;;;;;;;;;;;;;3.73;99.32;101737.53;4958995;28;1939;-88
2022/01/15 12:20:21;;;;;;;;;;;;;;;3.75;99.25;101740.03;4969370;28;1438;-92
2022/01/15 12:22:47;;;;;;;;;;;;;;;3.74;99.41;101733.78;4974509;28;1319;-90
2022/01/15 12:25:34;;;;;;;;;;;;;;;3.75;99.12;101731.91;4963184;28;1547;-90
2022/01/15 12:28:00;;;;;;;;;;;;;;;3.75;99.17;101726.47;4975971;28;1115;-90
2022/01/15 12:30:27;;;;;;;;;;;;;;;3.78;99.24;101723.38;4970292;28;1329;-90
2022/01/15 12:32:53;;;;;;;;;;;;;;;3.75;99.13;101712.94;4972001;28;1505;-91
2022/01/15 12:35:22;;;;;;;;;;;;;;;3.71;99.00;101711.69;4969746;28;1450;-91
2022/01/15 12:37:58;;;;;;;;;;;;;;;3.71;98.92;101712.53;4968415;28;1957;-90
2022/01/15 12:40:27;;;;;;;;;;;;;;;3.71;98.91;101711.69;4986896;28;1368;-90
2022/01/15 12:42:53;;;;;;;;;;;;;;;3.71;99.12;101706.28;4985423;28;1399;-90
2022/01/15 12:45:19;;;;;;;;;;;;;;;3.73;99.07;101701.50;4971708;28;1367;-92
2022/01/15 12:47:46;;;;;;;;;;;;;;;3.75;98.91;101702.13;4968921;28;1514;-91
2022/01/15 12:50:11;;;;;;;;;;;;;;;3.74;98.91;101693.16;4977551;28;1414;-90
2022/01/15 12:52:36;;;;;;;;;;;;;;;3.71;98.85;101690.88;4965719;28;1677;-91
2022/01/15 12:55:02;;;;;;;;;;;;;;;3.71;98.90;101692.75;4960025;28;1800;-91
2022/01/15 12:57:41;;;;;;;;;;;;;;;3.70;98.72;101688.38;4958461;28;1950;-91
2022/01/15 13:00:07;;;;;;;;;;;;;;;3.70;98.67;101681.09;4958690;28;1859;-91
2022/01/15 13:02:32;;;;;;;;;;;;;;;3.72;98.58;101686.28;4970487;28;1630;-90
2022/01/15 13:04:58;;;;;;;;;;;;;;;3.73;98.34;101686.09;4963495;28;1705;-90
2022/01/15 13:07:23;;;;;;;;;;;;;;;3.71;98.30;101680.06;4970878;28;1325;-90
2022/01/15 13:09:48;;;;;;;;;;;;;;;3.68;98.06;101685.88;4958344;28;831;-87
2022/01/15 13:12:13;;;;;;;;;;;;;;;3.69;97.96;101673.16;4957761;28;1403;-91
2022/01/15 13:14:40;;;;;;;;;;;;;;;3.70;97.78;101661.28;4941861;28;1244;-90